Zufallsbild

Aktuelle Termine

Mo Di Mi Do Fr Sa So
26 27 28 29 30 1 2
3 4 5 6 7 8 9
10 11 12 13 14 15 16
17 18 19 20 21 22 23
24 25 26 27 28 29 30
31 1 2 3 4 5 6

Pilotenwetter

[source: ADDS]
METAR
EDDH 201620Z 23006KT 200V260 9999 FEW023CB SCT030 BKN120 23/19 Q1007 NOSIG =
TAF
TAF EDDH 201100Z 2012/2118 19004KT 9999 SCT020 TEMPO 2012/2023 23015KT SCT010 BKN025CB PROB40 TEMPO 2012/2023 4000 TSRA BKN012 PROB30 TEMPO 2015/2017 24015G30KT TEMPO 2023/2107 26009KT BKN008 BECMG 2112/2114 29007KT =